Aérodrome :
LOGIN :

S'inscrire | Disclaimer

   EN    FR    IT 

 










Légende :    VFR   VFR Marginal   IFR   IFR Intensif   IFR Très Intensif
Visi : 
Plafond : 
>= 8 km
>= 3000ft
5 à 8 km
1000 à 3000 ft
1500m à 5 km
500 à 1000 ft
800 à 1500m
200 à 500 ft
< 800m
< 200 ft
Symboles :   Orages  Brouillard  Fortes neiges  Fortes précipitations  Vent > 20 kt
SIGMETs :   Divers  Orages  Givrage  Turbulence  Onde Orograph.  Cendres Volcan.







- Altitude de l'aérodrome : 392 ft
- Code IATA : CDG
- Voir les cartes d'approche


LFPG - Paris-Aeroport Charles De Gaulle

DERNIER METAR :
  • 250630Z 05008KT 020V090 CAVOK 16/13 Q1023 NOSIG

METARs EXPIRÉS :
  • 250600Z 04009KT 010V110 CAVOK 16/13 Q1023 NOSIG
  • 250530Z 04006KT 360V080 CAVOK 15/12 Q1023 NOSIG
  • 250500Z 04007KT 360V110 CAVOK 14/12 Q1023 NOSIG
  • 250430Z 03005KT CAVOK 14/12 Q1023 NOSIG
  • 250400Z 04003KT CAVOK 13/11 Q1023 NOSIG

TAF TAF LFPG
Valide du 25 à 06h jusqu'au 26 à 12h UTC


250500Z 2506/2612 04007KT CAVOK
TEMPO 2512/2516 06010G20KT TX27/2514Z TN15/2604Z
ATIS : +33 1 48 62 10 92
Pas de NOTAMs connus pour ce terrain.



MET'MAP, la Météo Aéronautique d'un coup d'oeil ! - Copyright ORBIFLY Décembre 2007 - Disclaimer

ORBIFLY MET'MAP TEAM :

Programmation & Développement : Alexandra Zaïnal
Conception & Développement : Baudouin d'Aumeries
Co-Programmation & Développement : Marc-Olivier Méhu
Soutien technique & logistique : Manuel Goepfert

Contact : metmap@orbifly.com




SOURCES & CREDITS :

   NOAA